NOZ666 ENAT-ENSB
Flight info
| Callsign | NOZ666 |
|---|---|
| Flight time | N/A |
| Altitude | 38000 |
| Route | ELSEV DCT OLOLI DCT AMPIS |
| Aircraft | B738/M-SDE2E3FGHIRWXY/LB1 |
Departure
| Time | N/A |
|---|---|
| Airport | Alta Airport (ENAT) |
Arrival
| Time | 2026-04-30 00:51 |
|---|---|
| Airport | Svalbard Airport, Longyear (ENSB) |
| Time | Latitude | Longitude | Altitude | Speed | Heading |
|---|---|---|---|---|---|
| 2026-04-30 00:15 | 76.36905 | 19.39840 | 35862 ft | 480 kts | 345° |
| 2026-04-30 00:15 | 76.40158 | 19.36797 | 35869 ft | 479 kts | 345° |
| 2026-04-30 00:16 | 76.46673 | 19.30657 | 35855 ft | 480 kts | 344° |
| 2026-04-30 00:16 | 76.53158 | 19.24486 | 35860 ft | 481 kts | 345° |
| 2026-04-30 00:17 | 76.59690 | 19.18210 | 35851 ft | 482 kts | 345° |
| 2026-04-30 00:17 | 76.66243 | 19.11852 | 35856 ft | 483 kts | 344° |
| 2026-04-30 00:18 | 76.72797 | 19.05431 | 35842 ft | 483 kts | 345° |
| 2026-04-30 00:18 | 76.79352 | 18.98944 | 35843 ft | 483 kts | 345° |
| 2026-04-30 00:19 | 76.85910 | 18.92389 | 35855 ft | 483 kts | 344° |
| 2026-04-30 00:19 | 76.92462 | 18.85774 | 35854 ft | 483 kts | 344° |
| 2026-04-30 00:20 | 76.99011 | 18.79093 | 35841 ft | 483 kts | 345° |
| 2026-04-30 00:20 | 77.05554 | 18.72353 | 35837 ft | 483 kts | 344° |
| 2026-04-30 00:21 | 77.12095 | 18.65542 | 35869 ft | 481 kts | 345° |
| 2026-04-30 00:21 | 77.15301 | 18.62187 | 35837 ft | 465 kts | 345° |
| 2026-04-30 00:21 | 77.18396 | 18.58938 | 35833 ft | 450 kts | 344° |
| 2026-04-30 00:21 | 77.21391 | 18.55776 | 35836 ft | 436 kts | 344° |
| 2026-04-30 00:22 | 77.24297 | 18.52690 | 35829 ft | 422 kts | 344° |
| 2026-04-30 00:22 | 77.27114 | 18.49682 | 35832 ft | 409 kts | 344° |
| 2026-04-30 00:22 | 77.29840 | 18.46756 | 35830 ft | 396 kts | 344° |
| 2026-04-30 00:22 | 77.32478 | 18.43911 | 35829 ft | 383 kts | 343° |
| 2026-04-30 00:23 | 77.35003 | 18.41177 | 35838 ft | 373 kts | 343° |
| 2026-04-30 00:23 | 77.40102 | 18.35596 | 35871 ft | 384 kts | 343° |
| 2026-04-30 00:24 | 77.45409 | 18.29737 | 35866 ft | 398 kts | 344° |
| 2026-04-30 00:24 | 77.50803 | 18.23763 | 35861 ft | 398 kts | 344° |
| 2026-04-30 00:25 | 77.56105 | 18.17852 | 35833 ft | 387 kts | 343° |
| 2026-04-30 00:25 | 77.61368 | 18.12174 | 35841 ft | 391 kts | 352° |
| 2026-04-30 00:25 | 77.64089 | 18.12670 | 35853 ft | 395 kts | 12° |
| 2026-04-30 00:26 | 77.66644 | 18.17353 | 35852 ft | 397 kts | 33° |
| 2026-04-30 00:26 | 77.68726 | 18.25698 | 35865 ft | 395 kts | 53° |
| 2026-04-30 00:26 | 77.70104 | 18.36739 | 35859 ft | 392 kts | 73° |
| 2026-04-30 00:26 | 77.70693 | 18.49085 | 35835 ft | 384 kts | 86° |
| 2026-04-30 00:27 | 77.70939 | 18.61444 | 35570 ft | 379 kts | 89° |
| 2026-04-30 00:27 | 77.71109 | 18.73803 | 35170 ft | 380 kts | 89° |
| 2026-04-30 00:27 | 77.71261 | 18.86172 | 34788 ft | 380 kts | 90° |
| 2026-04-30 00:27 | 77.71407 | 18.98509 | 34499 ft | 377 kts | 90° |
| 2026-04-30 00:28 | 77.71549 | 19.10719 | 34254 ft | 373 kts | 90° |
| 2026-04-30 00:28 | 77.71689 | 19.22661 | 33922 ft | 372 kts | 90° |
| 2026-04-30 00:28 | 77.71831 | 19.35225 | 32778 ft | 390 kts | 90° |
| 2026-04-30 00:28 | 77.71978 | 19.48369 | 31420 ft | 414 kts | 91° |
| 2026-04-30 00:29 | 77.72141 | 19.61991 | 30740 ft | 418 kts | 91° |
| 2026-04-30 00:29 | 77.72317 | 19.75530 | 30398 ft | 412 kts | 90° |
| 2026-04-30 00:29 | 77.72524 | 19.88832 | 30086 ft | 407 kts | 85° |
| 2026-04-30 00:29 | 77.73450 | 20.01424 | 29783 ft | 417 kts | 61° |
| 2026-04-30 00:30 | 77.75435 | 20.11836 | 29532 ft | 442 kts | 38° |
| 2026-04-30 00:30 | 77.78225 | 20.18531 | 29285 ft | 462 kts | 16° |
| 2026-04-30 00:30 | 77.81453 | 20.20733 | 29029 ft | 477 kts | 1° |
| 2026-04-30 00:30 | 77.84815 | 20.20014 | 28756 ft | 490 kts | 352° |
| 2026-04-30 00:31 | 77.88134 | 20.16769 | 28094 ft | 496 kts | 341° |
| 2026-04-30 00:31 | 77.91190 | 20.09559 | 27344 ft | 483 kts | 321° |
| 2026-04-30 00:31 | 77.93590 | 19.98691 | 26229 ft | 476 kts | 302° |
| 2026-04-30 00:31 | 77.95019 | 19.84747 | 25362 ft | 462 kts | 281° |
| 2026-04-30 00:32 | 77.95366 | 19.69835 | 24648 ft | 446 kts | 265° |
| 2026-04-30 00:32 | 77.95287 | 19.55092 | 23920 ft | 440 kts | 264° |
| 2026-04-30 00:32 | 77.95210 | 19.40544 | 23132 ft | 435 kts | 265° |
| 2026-04-30 00:32 | 77.94892 | 19.26313 | 22147 ft | 426 kts | 252° |
| 2026-04-30 00:33 | 77.94219 | 19.12623 | 21423 ft | 422 kts | 259° |
| 2026-04-30 00:33 | 77.94240 | 18.98627 | 20754 ft | 420 kts | 272° |
| 2026-04-30 00:33 | 77.94571 | 18.84832 | 20016 ft | 416 kts | 272° |
| 2026-04-30 00:33 | 77.94869 | 18.71166 | 19292 ft | 411 kts | 271° |
| 2026-04-30 00:34 | 77.95093 | 18.57611 | 18589 ft | 406 kts | 270° |
| 2026-04-30 00:34 | 77.95256 | 18.44186 | 17854 ft | 402 kts | 269° |
| 2026-04-30 00:34 | 77.95379 | 18.30869 | 17099 ft | 398 kts | 268° |
| 2026-04-30 00:34 | 77.95483 | 18.17702 | 16381 ft | 393 kts | 268° |
| 2026-04-30 00:35 | 77.95581 | 18.04693 | 15676 ft | 389 kts | 268° |
| 2026-04-30 00:35 | 77.95672 | 17.91790 | 14975 ft | 386 kts | 267° |
| 2026-04-30 00:35 | 77.95757 | 17.79011 | 14293 ft | 383 kts | 267° |
| 2026-04-30 00:35 | 77.95955 | 17.66330 | 13617 ft | 383 kts | 274° |
| 2026-04-30 00:36 | 77.96457 | 17.53804 | 12841 ft | 382 kts | 277° |
| 2026-04-30 00:36 | 77.97009 | 17.41425 | 12137 ft | 378 kts | 277° |
| 2026-04-30 00:36 | 77.97557 | 17.29199 | 11470 ft | 373 kts | 277° |
| 2026-04-30 00:36 | 77.98087 | 17.17083 | 10848 ft | 369 kts | 277° |
| 2026-04-30 00:37 | 77.98585 | 17.05482 | 10768 ft | 350 kts | 277° |
| 2026-04-30 00:37 | 77.99055 | 16.94272 | 10609 ft | 336 kts | 276° |
| 2026-04-30 00:37 | 77.99498 | 16.83461 | 10457 ft | 323 kts | 276° |
| 2026-04-30 00:37 | 77.99916 | 16.73068 | 10280 ft | 311 kts | 276° |
| 2026-04-30 00:38 | 78.00314 | 16.63079 | 10153 ft | 299 kts | 276° |
| 2026-04-30 00:38 | 78.00692 | 16.53459 | 10049 ft | 287 kts | 275° |
| 2026-04-30 00:38 | 78.01053 | 16.44181 | 9931 ft | 278 kts | 275° |
| 2026-04-30 00:38 | 78.01399 | 16.35198 | 9810 ft | 268 kts | 275° |
| 2026-04-30 00:39 | 78.01731 | 16.26472 | 9582 ft | 264 kts | 275° |
| 2026-04-30 00:39 | 78.02056 | 16.17815 | 9297 ft | 262 kts | 274° |
| 2026-04-30 00:39 | 78.02377 | 16.09224 | 9000 ft | 261 kts | 274° |
| 2026-04-30 00:39 | 78.02694 | 16.00664 | 8709 ft | 259 kts | 274° |
| 2026-04-30 00:40 | 78.03007 | 15.92151 | 8426 ft | 257 kts | 274° |
| 2026-04-30 00:40 | 78.03316 | 15.83678 | 8138 ft | 256 kts | 274° |
| 2026-04-30 00:40 | 78.03623 | 15.75213 | 7867 ft | 255 kts | 274° |
| 2026-04-30 00:40 | 78.03925 | 15.66814 | 7582 ft | 253 kts | 274° |
| 2026-04-30 00:41 | 78.04221 | 15.58509 | 7308 ft | 250 kts | 274° |
| 2026-04-30 00:41 | 78.04513 | 15.50243 | 7076 ft | 250 kts | 274° |
| 2026-04-30 00:41 | 78.04803 | 15.41933 | 6750 ft | 252 kts | 274° |
| 2026-04-30 00:41 | 78.05088 | 15.33752 | 6457 ft | 250 kts | 274° |
| 2026-04-30 00:42 | 78.05374 | 15.25563 | 6208 ft | 243 kts | 274° |
| 2026-04-30 00:42 | 78.05643 | 15.17810 | 6118 ft | 225 kts | 273° |
| 2026-04-30 00:42 | 78.05887 | 15.10683 | 6007 ft | 205 kts | 272° |
| 2026-04-30 00:42 | 78.06108 | 15.04159 | 5857 ft | 188 kts | 271° |
| 2026-04-30 00:43 | 78.06309 | 14.98168 | 5728 ft | 173 kts | 270° |
| 2026-04-30 00:43 | 78.06497 | 14.92453 | 5291 ft | 176 kts | 270° |
| 2026-04-30 00:43 | 78.06844 | 14.86818 | 4964 ft | 181 kts | 301° |
| 2026-04-30 00:43 | 78.07906 | 14.83859 | 4971 ft | 182 kts | 344° |
| 2026-04-30 00:44 | 78.09217 | 14.82727 | 4870 ft | 203 kts | 346° |
| 2026-04-30 00:44 | 78.10615 | 14.81579 | 4618 ft | 200 kts | 347° |
| 2026-04-30 00:44 | 78.11964 | 14.80477 | 4431 ft | 194 kts | 347° |
| 2026-04-30 00:44 | 78.13288 | 14.79384 | 4237 ft | 192 kts | 347° |
| 2026-04-30 00:45 | 78.14597 | 14.78295 | 4117 ft | 188 kts | 348° |
| 2026-04-30 00:45 | 78.15874 | 14.77227 | 4025 ft | 187 kts | 348° |
| 2026-04-30 00:45 | 78.17189 | 14.76119 | 3792 ft | 195 kts | 349° |
| 2026-04-30 00:45 | 78.18516 | 14.75008 | 3567 ft | 193 kts | 347° |
| 2026-04-30 00:46 | 78.19856 | 14.74442 | 3311 ft | 193 kts | 359° |
| 2026-04-30 00:46 | 78.20760 | 14.74733 | 3149 ft | 191 kts | 8° |
| 2026-04-30 00:46 | 78.22048 | 14.76292 | 2924 ft | 190 kts | 22° |
| 2026-04-30 00:46 | 78.23216 | 14.79065 | 2701 ft | 187 kts | 36° |
| 2026-04-30 00:47 | 78.24225 | 14.82802 | 2480 ft | 175 kts | 49° |
| 2026-04-30 00:47 | 78.25009 | 14.87032 | 2261 ft | 159 kts | 58° |
| 2026-04-30 00:47 | 78.25559 | 14.91261 | 2146 ft | 136 kts | 67° |
| 2026-04-30 00:47 | 78.25949 | 14.95347 | 1967 ft | 130 kts | 73° |
| 2026-04-30 00:48 | 78.26231 | 14.99457 | 1804 ft | 126 kts | 79° |
| 2026-04-30 00:48 | 78.26404 | 15.03645 | 1647 ft | 124 kts | 86° |
| 2026-04-30 00:48 | 78.26470 | 15.07885 | 1491 ft | 124 kts | 93° |
| 2026-04-30 00:48 | 78.26425 | 15.12082 | 1346 ft | 122 kts | 100° |
| 2026-04-30 00:49 | 78.26287 | 15.16139 | 1194 ft | 122 kts | 104° |
| 2026-04-30 00:49 | 78.26118 | 15.20189 | 1053 ft | 120 kts | 106° |
| 2026-04-30 00:49 | 78.25900 | 15.24173 | 919 ft | 124 kts | 107° |
| 2026-04-30 00:49 | 78.25671 | 15.28248 | 765 ft | 122 kts | 109° |
| 2026-04-30 00:50 | 78.25412 | 15.32217 | 585 ft | 122 kts | 108° |
| 2026-04-30 00:50 | 78.25189 | 15.36173 | 387 ft | 119 kts | 107° |
| 2026-04-30 00:50 | 78.24976 | 15.40111 | 217 ft | 118 kts | 108° |
| 2026-04-30 00:50 | 78.24765 | 15.43836 | 89 ft | 105 kts | 105° |
| 2026-04-30 00:51 | 78.24599 | 15.46793 | 88 ft | 77 kts | 106° |
| 2026-04-30 00:51 | 78.24558 | 15.47994 | 89 ft | 17 kts | 67° |
| 2026-04-30 00:51 | 78.24570 | 15.48106 | 91 ft | 0 kts | 64° |
| 2026-04-30 00:51 | 78.24577 | 15.48183 | 91 ft | 9 kts | 69° |
| 2026-04-30 00:52 | 78.24594 | 15.48527 | 88 ft | 10 kts | 70° |
| 2026-04-30 00:52 | 78.24638 | 15.48804 | 87 ft | 10 kts | 56° |
| 2026-04-30 00:52 | 78.24635 | 15.49143 | 87 ft | 10 kts | 99° |
| 2026-04-30 00:52 | 78.24630 | 15.49268 | 89 ft | 0 kts | 103° |
| 2026-04-30 00:53 | 78.24630 | 15.49271 | 88 ft | 0 kts | 103° |
| 2026-04-30 00:53 | 78.24613 | 15.49498 | 88 ft | 0 kts | 105° |